This is the latest recevied weather packets stored in our database for station/object JA3YAI-13. If no packets are shown the sender has not sent any weather packets the latest 10 day(s).
| Time | Temp. | Humidity | Pressure | Rain* | Wind** | Luminosity | Snow |
|---|---|---|---|---|---|---|---|
| 1777557385 | 13.89° C | 99% | 1001.6 hPa | 4.32 mm | - | - | - |
| 1777556784 | 13.89° C | 98% | 1002.3 hPa | 3.56 mm | - | - | - |
| 1777556184 | 13.89° C | 98% | 1002.8 hPa | 3.05 mm | - | - | - |
| 1777555584 | 14.44° C | 98% | 1003.2 hPa | 2.79 mm | - | - | - |
| 1777554985 | 14.44° C | 97% | 1003.3 hPa | 2.03 mm | - | - | - |
| 1777554385 | 14.44° C | 97% | 1003.9 hPa | 1.02 mm | - | - | - |
| 1777553785 | 14.44° C | 97% | 1004.3 hPa | 0.25 mm | - | - | - |
| 1777553184 | 14.44° C | 97% | 1003.9 hPa | 0.25 mm | - | - | - |
| 1777552584 | 14.44° C | 96% | 1003.3 hPa | 0.25 mm | - | - | - |
| 1777551985 | 14.44° C | 96% | 1003.4 hPa | 0 mm | - | - | - |
| 1777551385 | 14.44° C | 96% | 1003.1 hPa | 0 mm | - | - | - |
| 1777550785 | 14.44° C | 96% | 1003.3 hPa | 0 mm | - | - | - |
| 1777550184 | 14.44° C | 96% | 1003.2 hPa | 0 mm | - | - | - |
| 1777549584 | 13.89° C | 97% | 1003.5 hPa | 0 mm | - | - | - |
| 1777548985 | 13.89° C | 97% | 1003.6 hPa | 0 mm | - | - | - |
| 1777548385 | 13.89° C | 97% | 1003.6 hPa | 0 mm | - | - | - |
| 1777547784 | 13.89° C | 98% | 1003.8 hPa | 0 mm | - | - | - |
| 1777547184 | 13.89° C | 98% | 1003.8 hPa | 0 mm | - | - | - |
| 1777546584 | 13.89° C | 98% | 1003.8 hPa | 0 mm | - | - | - |
| 1777545985 | 13.89° C | 99% | 1004 hPa | 0 mm | - | - | - |
| 1777545385 | 13.89° C | 99% | 1004.1 hPa | 0 mm | - | - | - |
| 1777544785 | 13.89° C | 99% | 1004.3 hPa | 0 mm | - | - | - |
| 1777544184 | 13.89° C | 99% | 1004.4 hPa | 0 mm | - | - | - |
| 1777543584 | 13.89° C | 99% | 1004.7 hPa | 0 mm | - | - | - |
| 1777542985 | 13.89° C | 99% | 1004.4 hPa | 0 mm | - | - | - |
* Rain latest hour (hover to see other rain measurements)
** Current wind speed in m/s (hover to see current wind gust speed)